Time;durP1;ratioP1;P1;durP2;ratioP2;P2;SDS_P1;SDS_P2;PMS_P1;PMS_P2;Temp;Humidity;BMP_temperature;BMP_pressure;BME280_temperature;BME280_humidity;BME280_pressure;Samples;Min_cycle;Max_cycle;Signal;HPM_P1;HPM_P2
2024/03/13 06:48:00;;;;;;;3.10;2.50;;;;;;;;;;10660060;27;20031;-83
2024/03/13 06:53:06;;;;;;;2.67;2.00;;;;;;;;;;10492429;28;20033;-84
2024/03/13 06:58:07;;;;;;;1.77;1.38;;;;;;;;;;10509754;28;20037;-83
2024/03/13 07:03:08;;;;;;;3.42;2.47;;;;;;;;;;10625789;28;20480;-83
2024/03/13 07:08:12;;;;;;;;;;;;;;;;;;10617812;28;20028;-81
2024/03/13 07:13:14;;;;;;;1.92;1.25;;;;;;;;;;10614991;28;20286;-83
2024/03/13 07:18:17;;;;;;;2.40;1.50;;;;;;;;;;10630960;27;20047;-82
2024/03/13 07:23:18;;;;;;;3.30;1.95;;;;;;;;;;10597558;28;20466;-83
2024/03/13 07:28:22;;;;;;;;;;;;;;;;;;10634923;27;20047;-83
2024/03/13 07:33:23;;;;;;;2.55;1.83;;;;;;;;;;10616298;28;19907;-84
2024/03/13 07:38:24;;;;;;;4.18;3.30;;;;;;;;;;10616698;28;20031;-84
2024/03/13 07:43:25;;;;;;;2.67;1.80;;;;;;;;;;10629593;28;20016;-84
2024/03/13 07:48:26;;;;;;;2.63;1.88;;;;;;;;;;10632677;27;20023;-84
2024/03/13 07:53:29;;;;;;;2.38;1.92;;;;;;;;;;10607561;28;20027;-84
2024/03/13 07:58:31;;;;;;;4.13;2.67;;;;;;;;;;10587308;28;20024;-84
2024/03/13 08:03:44;;;;;;;1.58;1.15;;;;;;;;;;10600692;28;20051;-84
2024/03/13 08:08:47;;;;;;;2.08;1.33;;;;;;;;;;10594232;28;20424;-84
2024/03/13 08:13:51;;;;;;;2.35;1.70;;;;;;;;;;10573038;28;20028;-86
2024/03/13 08:18:53;;;;;;;2.45;1.85;;;;;;;;;;10534246;22;20057;-83
2024/03/13 08:23:54;;;;;;;2.20;1.65;;;;;;;;;;10511480;28;20025;-83
2024/03/13 08:28:56;;;;;;;3.80;3.03;;;;;;;;;;10511750;28;20049;-82
2024/03/13 08:33:57;;;;;;;2.60;2.10;;;;;;;;;;10511273;28;20029;-83
2024/03/13 08:38:58;;;;;;;2.53;2.00;;;;;;;;;;10512366;28;20407;-84
2024/03/13 08:44:04;;;;;;;3.33;1.80;;;;;;;;;;10512104;28;20107;-84
2024/03/13 08:49:19;;;;;;;3.30;2.55;;;;;;;;;;10513615;28;20499;-84
2024/03/13 08:55:02;;;;;;;3.10;1.87;;;;;;;;;;10510830;28;20044;-83
2024/03/13 09:00:22;;;;;;;4.18;3.67;;;;;;;;;;10495069;28;20118;-83
2024/03/13 09:05:25;;;;;;;2.63;1.85;;;;;;;;;;10510930;28;20024;-83
2024/03/13 09:22:17;;;;;;;4.18;2.60;;;;;;;;;;10510107;28;20484;-86
2024/03/13 09:27:45;;;;;;;3.13;2.38;;;;;;;;;;10510707;28;20017;-85
2024/03/13 09:32:49;;;;;;;1.95;1.50;;;;;;;;;;10512923;28;20436;-83
2024/03/13 09:38:12;;;;;;;2.83;2.17;;;;;;;;;;10513495;28;20035;-85
2024/03/13 09:43:32;;;;;;;2.97;2.53;;;;;;;;;;10509616;28;20028;-85
2024/03/13 09:48:37;;;;;;;4.70;4.20;;;;;;;;;;10509312;28;20055;-86
2024/03/13 09:53:41;;;;;;;4.60;3.83;;;;;;;;;;10513302;28;20413;-86
2024/03/13 10:04:25;;;;;;;5.60;3.15;;;;;;;;;;10511216;28;20020;-85
2024/03/13 10:15:15;;;;;;;4.90;4.18;;;;;;;;;;10506245;28;20028;-86
2024/03/13 10:32:00;;;;;;;7.78;6.13;;;;;;;;;;10531226;28;20052;-87
2024/03/13 10:59:29;;;;;;;7.18;5.93;;;;;;;;;;10505622;28;19950;-85
2024/03/13 11:27:55;;;;;;;8.95;6.93;;;;;;;;;;10542009;28;20056;-85
2024/03/13 11:33:23;;;;;;;8.85;7.28;;;;;;;;;;10525210;28;20029;-86
2024/03/13 11:39:03;;;;;;;12.68;8.85;;;;;;;;;;10504693;28;20488;-84
2024/03/13 11:44:29;;;;;;;10.98;8.27;;;;;;;;;;10523436;28;20032;-83
2024/03/13 11:49:31;;;;;;;7.97;5.95;;;;;;;;;;10530976;28;20033;-82
2024/03/13 11:54:43;;;;;;;11.02;9.05;;;;;;;;;;10532274;28;20017;-84
2024/03/13 12:00:13;;;;;;;8.52;5.25;;;;;;;;;;10529955;28;20103;-85
2024/03/13 12:05:30;;;;;;;8.82;7.78;;;;;;;;;;10481849;28;20037;-84
2024/03/13 12:10:54;;;;;;;8.73;7.57;;;;;;;;;;10524690;28;20032;-84
2024/03/13 12:16:06;;;;;;;8.30;6.10;;;;;;;;;;10529389;28;20384;-84
2024/03/13 12:21:36;;;;;;;5.78;4.60;;;;;;;;;;10515093;28;20052;-84
2024/03/13 12:26:39;;;;;;;9.55;7.50;;;;;;;;;;10523129;28;20044;-83
2024/03/13 12:32:18;;;;;;;4.80;4.30;;;;;;;;;;10527083;28;20482;-85
2024/03/13 12:37:23;;;;;;;9.20;6.10;;;;;;;;;;10528091;28;20476;-84
2024/03/13 12:42:29;;;;;;;4.75;3.88;;;;;;;;;;10532600;28;20074;-82
2024/03/13 12:47:45;;;;;;;6.30;5.07;;;;;;;;;;10515090;28;20078;-84
2024/03/13 12:52:51;;;;;;;9.43;6.80;;;;;;;;;;10524864;28;20020;-84
2024/03/13 12:58:18;;;;;;;7.90;5.35;;;;;;;;;;10527089;28;20473;-84
2024/03/13 13:03:46;;;;;;;4.50;3.95;;;;;;;;;;10516617;28;20128;-84
2024/03/13 13:09:29;;;;;;;4.38;3.78;;;;;;;;;;10528135;28;20087;-84
2024/03/13 13:20:35;;;;;;;9.35;8.05;;;;;;;;;;10482805;28;20025;-84
2024/03/13 13:25:56;;;;;;;7.70;5.88;;;;;;;;;;10321610;28;20049;-84
2024/03/13 13:31:13;;;;;;;7.53;6.75;;;;;;;;;;10463697;28;20067;-83
2024/03/13 13:36:26;;;;;;;8.15;6.13;;;;;;;;;;10458237;28;20036;-82
2024/03/13 13:41:35;;;;;;;3.97;3.38;;;;;;;;;;10455570;28;20044;-82
2024/03/13 13:46:37;;;;;;;4.20;3.80;;;;;;;;;;10480124;28;20180;-83
2024/03/13 13:51:42;;;;;;;3.45;2.72;;;;;;;;;;10525665;28;20052;-82
2024/03/13 13:56:46;;;;;;;7.38;6.40;;;;;;;;;;10526174;28;20017;-83
2024/03/13 14:01:55;;;;;;;5.35;4.60;;;;;;;;;;10518957;28;20150;-82
2024/03/13 14:06:57;;;;;;;5.78;5.07;;;;;;;;;;10518164;28;20070;-82
2024/03/13 14:11:58;;;;;;;7.85;5.10;;;;;;;;;;10532968;28;20016;-82
2024/03/13 14:16:59;;;;;;;6.05;4.40;;;;;;;;;;10565514;22;20139;-83
2024/03/13 14:27:27;;;;;;;6.25;5.10;;;;;;;;;;10509987;28;20036;-82
2024/03/13 14:32:29;;;;;;;5.60;4.68;;;;;;;;;;10491701;28;20110;-82
2024/03/13 14:37:58;;;;;;;5.55;4.70;;;;;;;;;;10494550;28;20016;-84
2024/03/13 14:43:09;;;;;;;7.88;7.07;;;;;;;;;;10424753;28;20037;-83
2024/03/13 14:48:10;;;;;;;;;;;;;;;;;;10410175;28;20037;-82
2024/03/13 14:53:13;;;;;;;5.38;4.22;;;;;;;;;;10507981;28;19915;-81
2024/03/13 14:58:19;;;;;;;6.30;5.22;;;;;;;;;;10469504;28;20041;-81
2024/03/13 15:03:21;;;;;;;6.47;5.00;;;;;;;;;;10500528;28;20047;-81
2024/03/13 15:08:25;;;;;;;5.00;4.15;;;;;;;;;;10515318;28;20029;-82
2024/03/13 15:13:26;;;;;;;4.70;3.95;;;;;;;;;;10496549;28;20024;-81
2024/03/13 15:18:37;;;;;;;5.13;4.35;;;;;;;;;;10497318;28;20032;-81
2024/03/13 15:23:39;;;;;;;4.70;3.65;;;;;;;;;;10516144;28;20029;-83
2024/03/13 15:28:41;;;;;;;5.50;4.03;;;;;;;;;;10502416;28;20395;-82
2024/03/13 15:33:51;;;;;;;5.43;3.30;;;;;;;;;;10514539;28;20054;-82
2024/03/13 15:38:59;;;;;;;4.55;3.25;;;;;;;;;;10515410;28;20029;-81
2024/03/13 15:44:08;;;;;;;5.75;3.28;;;;;;;;;;10522682;28;20027;-80
2024/03/13 15:49:11;;;;;;;3.30;2.50;;;;;;;;;;10544866;28;20039;-84
2024/03/13 15:54:14;;;;;;;4.35;3.22;;;;;;;;;;10517208;28;20044;-82
2024/03/13 15:59:16;;;;;;;6.93;4.18;;;;;;;;;;10512794;28;20025;-81
2024/03/13 16:04:25;;;;;;;4.82;3.45;;;;;;;;;;10518366;28;20037;-82
2024/03/13 16:09:29;;;;;;;5.13;3.17;;;;;;;;;;10519064;28;20036;-85
2024/03/13 16:14:37;;;;;;;4.88;3.30;;;;;;;;;;10500944;28;20024;-83
2024/03/13 16:19:38;;;;;;;3.22;2.67;;;;;;;;;;10518071;28;20133;-84
2024/03/13 16:24:42;;;;;;;6.65;3.97;;;;;;;;;;10520389;28;20024;-83
2024/03/13 16:29:44;;;;;;;5.40;3.50;;;;;;;;;;10516887;28;20031;-81
2024/03/13 16:34:48;;;;;;;4.82;3.88;;;;;;;;;;10512282;28;20109;-81
2024/03/13 16:39:57;;;;;;;3.92;3.20;;;;;;;;;;10491863;28;20036;-81
2024/03/13 16:45:02;;;;;;;4.10;3.15;;;;;;;;;;10497326;28;20054;-83
2024/03/13 16:50:15;;;;;;;4.53;3.25;;;;;;;;;;10499895;28;20032;-83
2024/03/13 16:55:41;;;;;;;6.22;5.10;;;;;;;;;;10500927;28;20031;-83
2024/03/13 17:00:43;;;;;;;3.75;2.55;;;;;;;;;;10515815;28;20095;-82
2024/03/13 17:05:44;;;;;;;3.42;2.92;;;;;;;;;;10522309;28;20125;-82
2024/03/13 17:10:55;;;;;;;4.80;2.90;;;;;;;;;;10509229;28;20021;-81
2024/03/13 17:16:10;;;;;;;2.83;2.33;;;;;;;;;;10489653;28;20025;-81
2024/03/13 17:21:14;;;;;;;5.72;4.00;;;;;;;;;;10524219;28;20028;-82
2024/03/13 17:26:16;;;;;;;5.15;2.53;;;;;;;;;;10523023;28;20033;-82
2024/03/13 17:31:18;;;;;;;4.40;2.92;;;;;;;;;;10477613;28;20061;-83
2024/03/13 17:36:19;;;;;;;4.30;2.58;;;;;;;;;;10487614;28;20097;-81
2024/03/13 17:41:21;;;;;;;3.70;2.45;;;;;;;;;;10505739;28;20028;-81
2024/03/13 17:46:22;;;;;;;5.45;3.42;;;;;;;;;;10485714;28;20507;-81
2024/03/13 17:51:23;;;;;;;3.63;2.67;;;;;;;;;;10489298;28;20040;-82
2024/03/13 17:56:25;;;;;;;3.38;2.40;;;;;;;;;;10502878;28;20040;-82
2024/03/13 18:01:26;;;;;;;5.03;3.17;;;;;;;;;;10487337;28;20557;-82
2024/03/13 18:06:27;;;;;;;2.95;2.30;;;;;;;;;;10484563;28;20118;-82
2024/03/13 18:11:28;;;;;;;5.28;3.60;;;;;;;;;;10485120;28;20139;-82
2024/03/13 18:16:29;;;;;;;4.53;2.60;;;;;;;;;;10486811;28;20111;-82
2024/03/13 18:21:30;;;;;;;3.53;2.28;;;;;;;;;;10503056;28;20543;-81
2024/03/13 18:26:31;;;;;;;3.13;2.53;;;;;;;;;;10504013;28;20041;-83
2024/03/13 18:31:32;;;;;;;5.68;3.08;;;;;;;;;;10504994;28;20029;-83
2024/03/13 18:36:34;;;;;;;3.75;3.03;;;;;;;;;;10489628;28;20059;-83
2024/03/13 18:41:39;;;;;;;4.18;3.35;;;;;;;;;;10506619;28;20027;-83
2024/03/13 18:46:40;;;;;;;6.53;4.63;;;;;;;;;;10489663;28;20110;-83
2024/03/13 18:51:41;;;;;;;3.75;3.15;;;;;;;;;;10488860;28;20025;-83
2024/03/13 18:56:42;;;;;;;6.43;4.35;;;;;;;;;;10488634;28;20025;-83
2024/03/13 19:01:43;;;;;;;3.50;2.60;;;;;;;;;;10515644;28;20060;-82
2024/03/13 19:06:44;;;;;;;4.13;2.67;;;;;;;;;;10520891;28;20028;-83
2024/03/13 19:11:47;;;;;;;3.85;2.90;;;;;;;;;;10491693;28;20485;-83
2024/03/13 19:16:48;;;;;;;5.18;3.05;;;;;;;;;;10511061;28;20487;-83
2024/03/13 19:21:51;;;;;;;5.40;3.70;;;;;;;;;;10508785;28;20032;-83
2024/03/13 19:26:52;;;;;;;2.85;2.28;;;;;;;;;;10506255;28;20029;-85
2024/03/13 19:31:53;;;;;;;3.80;2.47;;;;;;;;;;10488782;28;20031;-82
2024/03/13 19:36:54;;;;;;;2.85;2.38;;;;;;;;;;10489718;28;20027;-82
2024/03/13 19:41:55;;;;;;;4.47;4.03;;;;;;;;;;10491648;28;20480;-83
2024/03/13 19:46:57;;;;;;;4.78;3.63;;;;;;;;;;10493656;28;20052;-83
2024/03/13 19:51:58;;;;;;;2.95;2.38;;;;;;;;;;10512993;28;20103;-82
2024/03/13 19:57:02;;;;;;;4.32;3.38;;;;;;;;;;10511782;28;20047;-82
2024/03/13 20:02:03;;;;;;;3.88;2.60;;;;;;;;;;10512333;28;20028;-82
